Zanoni, Missouri
Current Conditions -  °F | °C
As of 1:01 AM on Monday 24 Nov 2014 (Local Time) from KBPK Reporting Station
Overcast Overcast  
Wind Chill: 39°   Ceiling: 1800
Heat Index: 45°   Visibility: 10mi
Dew Point: 40°   Wind: 13mph
Humidity: 82%   Direction: 310°NW
Pressure: 29.46"   Gusts: 23mph
Location:  36.69°N, 92.33°W
Report Text: KBPK 240701Z AUTO 31011G20KT 280V350 10SM OVC018 07/04 A2946 RMK AO2 T00720044
Loading
Personal Weather Stations






























Interactive Weather Map New forecast layout! Learn more

10-Day Weather Forecast

Advertisements
Track Severe Weather on mobile